Current Weather Conditions from Arkansas, Oklahoma, Missouri & Kansas

As well as selected U.S. cities associated with XNA Flights


KVBT - Bentonville Arkansas, Airport
Updated: Wed, Aug-Wed-2018 5:31am
Mostly cloudy
Mostly cloudy
 Wind from SW
Wind: SW 8 mph , 13 km/h
Temperature: 72°F , 22°C
Dew Point: 70°F , 21°C
Humidity: 94%
Barometer: 29.96 inHg , 1014.6 hPa
Clouds: Mostly cloudy
Visibility: 10 miles , 16 km
Cloud details: Partly cloudy 900 ft
Mostly cloudy 1400 ft
Mostly cloudy 2400 ft
2018/08/15 10:31 KVBT 151031Z AUTO 22007KT 10SM SCT009 BKN014 BKN024 22/21 A2996 RMK AO2 RAE10 P0000
KROG - Rogers Arkansas, Airport
Updated: Wed, Aug-Wed-2018 5:37am
Mostly cloudy
Mostly cloudy
 Wind from SW
Wind: SW 6 mph , 9 km/h
Temperature: 72°F , 22°C
Dew Point: 70°F , 21°C
Humidity: 94%
Barometer: 29.96 inHg , 1014.6 hPa
Clouds: Mostly cloudy
Visibility: 10 miles , 16 km
Cloud details: Partly cloudy 900 ft
Mostly cloudy 11000 ft
2018/08/15 10:37 KROG 151037Z 22005KT 10SM SCT009 BKN110 22/21 A2996 RMK AO2 RAE17 P0001
KXNA - Northwest Arkansas Regional Airport
Updated: Wed, Aug-Wed-2018 5:23am
Few Clouds
Few Clouds
 Wind from SW
Wind: SW 9 mph , 15 km/h
Temperature: 72°F , 22°C
Dew Point: 68°F , 20°C
Humidity: 88%
Barometer: 29.95 inHg , 1014.2 hPa
Clouds: Few Clouds
Visibility: 10 miles , 16 km
Cloud details: Few Clouds 1200 ft
2018/08/15 10:23 KXNA 151023Z 22008KT 10SM FEW012 22/20 A2995 RMK AO2 RAE0958 P0000 T02220200
 
KSLG - Siloam Spring Arkansas, Airport
Updated: Wed, Aug-Wed-2018 4:56am
Mostly cloudy
Mostly cloudy
 Wind from WSW
Wind: WSW 9 mph , 15 km/h
Temperature: 72°F , 22°C
Dew Point: 70°F , 21°C
Humidity: 94%
Barometer: 29.95 inHg , 1014.2 hPa
Clouds: Mostly cloudy
Visibility: 10 miles , 16 km
Cloud details: Few Clouds 800 ft
Partly cloudy 1200 ft
Mostly cloudy 3400 ft
2018/08/15 09:56 KSLG 150956Z AUTO 25008KT 10SM FEW008 SCT012 BKN034 22/21 A2995 RMK AO2 RAB26E44 SLP132 P0001 T02170211
KASG - Springdale, Arkansas, Airport
Updated: Tue, Aug-Tue-2018 8:48pm
NOT Current
Partly cloudy
Partly cloudy
 Wind from SSW
Wind: SSW 6 mph , 9 km/h
Temperature: 72°F , 22°C
Dew Point: 70°F , 21°C
Humidity: 94%
Barometer: 29.97 inHg , 1014.9 hPa
Clouds: Partly cloudy
Visibility: 10 miles , 16 km
Cloud details: Partly cloudy 5000 ft
Partly cloudy 7000 ft
2018/08/15 01:48 KASG 150148Z 21005KT 10SM SCT050 SCT070 22/21 A2997
KFYV - Fayetteville Arkansas, Airport
Updated: Wed, Aug-Wed-2018 4:53am
Rain, Mist, Mostly cloudy
Rain, Mist, Mostly cloudy
 Wind from SW
Wind: SW 8 mph , 13 km/h
Temperature: 72°F , 22°C
Dew Point: 72°F , 22°C
Humidity: 100%
Barometer: 29.95 inHg , 1014.2 hPa
Summary: Rain, Mist
Clouds: Mostly cloudy
Visibility: 5 miles , 8 km
Cloud details: Few Clouds 1800 ft
Partly cloudy 9500 ft
Mostly cloudy 11000 ft
2018/08/15 09:53 KFYV 150953Z AUTO 22007KT 5SM RA BR FEW018 SCT095 BKN110 22/22 A2995 RMK AO2 RAB10 TSB06E26 SLP129 P0004 T02220217
 
KHRO - Harrison, Arkansas
Updated: Wed, Aug-Wed-2018 4:53am
Partly cloudy
Partly cloudy
 Wind from SSW
Wind: SSW 7 mph , 11 km/h, Gust: 17 mph , 28 km/h
Temperature: 73°F , 23°C
Dew Point: 70°F , 21°C
Humidity: 89%
Barometer: 29.94 inHg , 1013.9 hPa
Clouds: Partly cloudy
Visibility: 10 miles , 16 km
Cloud details: Partly cloudy 7500 ft
2018/08/15 09:53 KHRO 150953Z AUTO 20006G15KT 10SM SCT075 23/21 A2994 RMK AO2 SLP124 T02330211
KFLP - Flippin, Arkansas
Updated: Wed, Aug-Wed-2018 4:56am
Mostly cloudy
Mostly cloudy
 Wind from calm
Wind: Calm
Temperature: 72°F , 22°C
Dew Point: 70°F , 21°C
Humidity: 94%
Barometer: 29.92 inHg , 1013.2 hPa
Clouds: Mostly cloudy
Visibility: 8 miles , 13 km
Cloud details: Few Clouds 8000 ft
Mostly cloudy 11000 ft
2018/08/15 09:56 KFLP 150956Z AUTO 00000KT 8SM FEW080 BKN110 22/21 A2992 RMK AO2 SLP123 T02170211
KBPK - Mountain Home, Arkansas
Updated: Wed, Aug-Wed-2018 4:53am
Mostly cloudy
Mostly cloudy
 Wind from SSW
Wind: SSW 5 mph , 7 km/h
Temperature: 70°F , 21°C
Dew Point: 70°F , 21°C
Humidity: 100%
Barometer: 29.91 inHg , 1012.9 hPa
Clouds: Mostly cloudy
Visibility: 10 miles , 16 km
Cloud details: Few Clouds 6500 ft
Mostly cloudy 10000 ft
2018/08/15 09:53 KBPK 150953Z AUTO 21004KT 10SM FEW065 BKN100 21/21 A2991 RMK AO2 SLP120 T02110211
 
KCCA - Clinton, Arkansas
Updated: Wed, Aug-Wed-2018 5:35am
Mist, Few clouds
Mist, Few clouds
 Wind from calm
Wind: Calm
Temperature: 68°F , 20°C
Dew Point: 68°F , 20°C
Humidity: 100%
Barometer: 29.94 inHg , 1013.9 hPa
Summary: Mist
Clouds: Few Clouds
Visibility: 4 miles , 6 km
Cloud details: Few Clouds 3500 ft
Few Clouds 4700 ft
2018/08/15 10:35 KCCA 151035Z AUTO 00000KT 4SM BR FEW035 FEW047 20/20 A2994 RMK AO2
KRUE - Russellville, Arkansas
Updated: Wed, Aug-Wed-2018 4:53am
Clear
Clear
 Wind from SSE
Wind: SSE 5 mph , 7 km/h
Temperature: 75°F , 24°C
Dew Point: 72°F , 22°C
Humidity: 89%
Barometer: 29.91 inHg , 1012.9 hPa
Clouds: Clear
Visibility: 10 miles , 16 km
2018/08/15 09:53 KRUE 150953Z AUTO 15004KT 10SM CLR 24/22 A2991 RMK AO2 SLP122 T02390222
KBVX - Batesville, Arkansa
Updated: Wed, Aug-Wed-2018 4:56am
Overcast
Overcast
 Wind from S
Wind: S 6 mph , 9 km/h
Temperature: 75°F , 24°C
Dew Point: 72°F , 22°C
Humidity: 89%
Barometer: 29.94 inHg , 1013.9 hPa
Clouds: Overcast
Visibility: 10 miles , 16 km
Cloud details: Overcast 12000 ft
2018/08/15 09:56 KBVX 150956Z AUTO 18005KT 10SM OVC120 24/22 A2994 RMK AO2 SLP134 T02390217
 
KBYH - Blytheville, Arkansas
Updated: Tue, Aug-Tue-2018 4:50pm
NOT Current
Overcast
Overcast
 Wind from SW
Wind: SW 10 mph , 17 km/h
Temperature: 86°F , 30°C
Heat Index: 95°F , 35°C
Dew Point: 75°F , 24°C
Humidity: 70%
Barometer: 29.98 inHg , 1015.2 hPa
Clouds: Overcast
Visibility: 10 miles , 16 km
Cloud details: Mostly cloudy 15000 ft
Overcast 25000 ft
2018/08/14 21:50 KBYH 142150Z 22009KT 10SM BKN150 OVC250 30/24 A2998 RMK LAST
KM19 - Newport, Arkansas
Updated: Wed, Aug-Wed-2018 4:56am
Few Clouds
Few Clouds
 Wind from S
Wind: S 8 mph , 13 km/h
Temperature: 73°F , 23°C
Dew Point: 72°F , 22°C
Humidity: 94%
Barometer: 29.94 inHg , 1013.9 hPa
Clouds: Few Clouds
Cloud details: Few Clouds 12000 ft
2018/08/15 09:56 KM19 150956Z AUTO 18007KT FEW120 23/22 A2994 RMK AO2 SLP141 T02280217 PWINO $
KSRC - Searcy, Arkansas
Updated: Wed, Aug-Wed-2018 4:56am
Clear
Clear
 Wind from S
Wind: S 3 mph , 6 km/h
Temperature: 73°F , 23°C
Dew Point: 73°F , 23°C
Humidity: 100%
Barometer: 29.95 inHg , 1014.2 hPa
Clouds: Clear
Visibility: 10 miles , 16 km
2018/08/15 09:56 KSRC 150956Z AUTO 19003KT 10SM CLR 23/23 A2995 RMK AO2 SLP146 T02280228
 
KARG - Walnut Ridge, Arkansas
Updated: Wed, Aug-Wed-2018 4:56am

 Wind from S
Wind: S 12 mph , 19 km/h
Temperature: 75°F , 24°C
Dew Point: 72°F , 22°C
Humidity: 89%
Barometer: 29.93 inHg , 1013.5 hPa
Visibility: 10 miles , 16 km
2018/08/15 09:56 KARG 150956Z AUTO 17010KT 10SM 24/22 A2993 RMK AO2 RAE0858 SLP132 P0000 T02440222 $
KJBR - Jonesboro, Arkansas
Updated: Wed, Aug-Wed-2018 4:53am
Few Clouds
Few Clouds
 Wind from S
Wind: S 6 mph , 9 km/h
Temperature: 75°F , 24°C
Dew Point: 75°F , 24°C
Humidity: 100%
Barometer: 29.94 inHg , 1013.9 hPa
Clouds: Few Clouds
Visibility: 10 miles , 16 km
Cloud details: Few Clouds 12000 ft
2018/08/15 09:53 KJBR 150953Z AUTO 17005KT 10SM FEW120 24/24 A2994 RMK AO2 SLP135 T02390239
K4M9 - Corning, Arkansas
Updated: Wed, Aug-Wed-2018 5:35am
Overcast
Overcast
 Wind from S
Wind: S 6 mph , 9 km/h
Temperature: 75°F , 24°C
Dew Point: 75°F , 24°C
Humidity: 100%
Barometer: 29.93 inHg , 1013.5 hPa
Clouds: Overcast
Visibility: 10 miles , 16 km
Cloud details: Overcast 10000 ft
2018/08/15 10:35 K4M9 151035Z AUTO 17005KT 10SM OVC100 24/24 A2993 RMK AO2 LTG DSNT N AND NE PWINO
 
KLRF - Little Rock Afb, Arkansas
Updated: Wed, Aug-Wed-2018 4:56am
Mostly cloudy
Mostly cloudy
 Wind from calm
Wind: Calm
Temperature: 73°F , 23°C
Dew Point: 73°F , 23°C
Humidity: 100%
Barometer: 29.94 inHg , 1013.9 hPa
Clouds: Mostly cloudy
Visibility: 10 miles , 16 km
Cloud details: Partly cloudy 12000 ft
Mostly cloudy 16000 ft
2018/08/15 09:56 KLRF 150956Z 00000KT 10SM SCT120 BKN160 23/23 A2994 RMK AO2A SLP138 T02280228
KLIT - Little Rock, Arkansas
Updated: Wed, Aug-Wed-2018 4:53am
Overcast
Overcast
 Wind from S
Wind: S 9 mph , 15 km/h
Temperature: 75°F , 24°C
Dew Point: 72°F , 22°C
Humidity: 89%
Barometer: 29.94 inHg , 1013.9 hPa
Clouds: Overcast
Visibility: 7 miles , 11 km
Cloud details: Few Clouds 12000 ft
Overcast 15000 ft
2018/08/15 09:53 KLIT 150953Z 19008KT 7SM FEW120 OVC150 24/22 A2994 RMK AO2 SLP137 T02440222
KSGT - Stuttgart, Arkansas
Updated: Wed, Aug-Wed-2018 4:56am
Clear
Clear
 Wind from S
Wind: S 10 mph , 17 km/h
Temperature: 79°F , 26°C
Dew Point: 73°F , 23°C
Humidity: 84%
Barometer: 29.95 inHg , 1014.2 hPa
Clouds: Clear
Visibility: 10 miles , 16 km
2018/08/15 09:56 KSGT 150956Z AUTO 18009KT 10SM CLR 26/23 A2995 RMK AO2 SLP141 T02560228
 
KAWM - West Memphis, Arkansas
Updated: Wed, Aug-Wed-2018 2:53am
NOT Current
Partly cloudy
Partly cloudy
 Wind from S
Wind: S 6 mph , 9 km/h
Temperature: 75°F , 24°C
Dew Point: 73°F , 23°C
Humidity: 94%
Barometer: 29.98 inHg , 1015.2 hPa
Clouds: Partly cloudy
Visibility: 9 miles , 14 km
Cloud details: Partly cloudy 12000 ft
2018/08/15 07:53 KAWM 150753Z AUTO 17005KT 9SM SCT120 24/23 A2998 RMK AO2 SLP145 T02440228
KFSM - Fort Smith, Arkansas
Updated: Wed, Aug-Wed-2018 5:16am
Nearby thunderstorm, Light rain, Mostly cloudy
Nearby thunderstorm, Light rain, Mostly cloudy
 Wind from SSW
Wind: SSW 14 mph , 22 km/h
Temperature: 73°F , 23°C
Dew Point: 70°F , 21°C
Humidity: 89%
Barometer: 29.94 inHg , 1013.9 hPa
Summary: Nearby thunderstorm, Light rain
Clouds: Mostly cloudy
Visibility: 10 miles , 16 km
Cloud details: Few Clouds 7500 ft
Mostly cloudy 10000 ft
Mostly cloudy 12000 ft
2018/08/15 10:16 KFSM 151016Z AUTO 21012KT 10SM VCTS -RA FEW075 BKN100 BKN120 23/21 A2994 RMK AO2 LTG DSNT E-SW P0003 T02330206 $
KMWT - Mount Ida, Arkansas
Updated: Wed, Aug-Wed-2018 4:53am
Clear
Clear
 
Temperature: 81°F , 27°C
Heat Index: 85°F , 29°C
Dew Point: 72°F , 22°C
Humidity: 74%
Barometer: 29.93 inHg , 1013.5 hPa
Clouds: Clear
Visibility: 10 miles , 16 km
2018/08/15 09:53 KMWT 150953Z AUTO 10SM CLR 27/22 A2993 RMK AO2 SLP122 T02670222
 
KMEZ - Mena, Arkansas
Updated: Wed, Aug-Wed-2018 5:35am
Nearby thunderstorm, Mostly cloudy
Nearby thunderstorm, Mostly cloudy
 Wind from WSW
Wind: WSW 8 mph , 13 km/h
Temperature: 81°F , 27°C
Heat Index: 86°F , 30°C
Dew Point: 73°F , 23°C
Humidity: 79%
Barometer: 29.99 inHg , 1015.6 hPa
Summary: Nearby Thunderstorm
Clouds: Mostly cloudy
Visibility: 10 miles , 16 km
Cloud details: Mostly cloudy 7000 ft
Mostly cloudy 8000 ft
Mostly cloudy 11000 ft
2018/08/15 10:35 KMEZ 151035Z AUTO 24007KT 10SM VCTS BKN070 BKN080 BKN110 27/23 A2999 RMK AO2 LTG DSNT SW THRU N
KHOT - Hot Springs, Arkansas
Updated: Wed, Aug-Wed-2018 4:53am
Clear
Clear
 Wind from SW
Wind: SW 8 mph , 13 km/h
Temperature: 81°F , 27°C
Heat Index: 85°F , 29°C
Dew Point: 72°F , 22°C
Humidity: 74%
Barometer: 29.95 inHg , 1014.2 hPa
Clouds: Clear
Visibility: 10 miles , 16 km
2018/08/15 09:53 KHOT 150953Z AUTO 23007KT 10SM CLR 27/22 A2995 RMK AO2 SLP135 T02670222
KADF - Arkadelphia, Arkansas
Updated: Wed, Aug-Wed-2018 4:56am
Clear
Clear
 Wind from calm
Wind: Calm
Temperature: 73°F , 23°C
Dew Point: 73°F , 23°C
Humidity: 100%
Barometer: 29.96 inHg , 1014.6 hPa
Clouds: Clear
Visibility: 8 miles , 13 km
2018/08/15 09:56 KADF 150956Z AUTO 00000KT 8SM CLR 23/23 A2996 RMK AO2 SLP145 T02330233 TSNO
 
KSGT - Stuttgart, Arkansas
Updated: Wed, Aug-Wed-2018 4:56am
Clear
Clear
 Wind from S
Wind: S 10 mph , 17 km/h
Temperature: 79°F , 26°C
Dew Point: 73°F , 23°C
Humidity: 84%
Barometer: 29.95 inHg , 1014.2 hPa
Clouds: Clear
Visibility: 10 miles , 16 km
2018/08/15 09:56 KSGT 150956Z AUTO 18009KT 10SM CLR 26/23 A2995 RMK AO2 SLP141 T02560228
KPBF - Pine Bluff, Arkansas
Updated: Wed, Aug-Wed-2018 4:53am
Clear
Clear
 Wind from S
Wind: S 5 mph , 7 km/h
Temperature: 75°F , 24°C
Dew Point: 72°F , 22°C
Humidity: 89%
Barometer: 29.96 inHg , 1014.6 hPa
Clouds: Clear
Visibility: 10 miles , 16 km
2018/08/15 09:53 KPBF 150953Z AUTO 18004KT 10SM CLR 24/22 A2996 RMK AO2 SLP143 T02390217
KSRC - Searcy, Arkansas
Updated: Wed, Aug-Wed-2018 4:56am
Clear
Clear
 Wind from S
Wind: S 3 mph , 6 km/h
Temperature: 73°F , 23°C
Dew Point: 73°F , 23°C
Humidity: 100%
Barometer: 29.95 inHg , 1014.2 hPa
Clouds: Clear
Visibility: 10 miles , 16 km
2018/08/15 09:56 KSRC 150956Z AUTO 19003KT 10SM CLR 23/23 A2995 RMK AO2 SLP146 T02280228
 
KRUE - Russellville, Arkansas
Updated: Wed, Aug-Wed-2018 4:53am
Clear
Clear
 Wind from SSE
Wind: SSE 5 mph , 7 km/h
Temperature: 75°F , 24°C
Dew Point: 72°F , 22°C
Humidity: 89%
Barometer: 29.91 inHg , 1012.9 hPa
Clouds: Clear
Visibility: 10 miles , 16 km
2018/08/15 09:53 KRUE 150953Z AUTO 15004KT 10SM CLR 24/22 A2991 RMK AO2 SLP122 T02390222
KCCA - Clinton, Arkansas
Updated: Wed, Aug-Wed-2018 5:35am
Mist, Few clouds
Mist, Few clouds
 Wind from calm
Wind: Calm
Temperature: 68°F , 20°C
Dew Point: 68°F , 20°C
Humidity: 100%
Barometer: 29.94 inHg , 1013.9 hPa
Summary: Mist
Clouds: Few Clouds
Visibility: 4 miles , 6 km
Cloud details: Few Clouds 3500 ft
Few Clouds 4700 ft
2018/08/15 10:35 KCCA 151035Z AUTO 00000KT 4SM BR FEW035 FEW047 20/20 A2994 RMK AO2
KLLQ - Monticello, Arkansas
Updated: Wed, Aug-Wed-2018 4:53am
Clear
Clear
 Wind from S
Wind: S 5 mph , 7 km/h
Temperature: 79°F , 26°C
Dew Point: 72°F , 22°C
Humidity: 79%
Barometer: 29.98 inHg , 1015.2 hPa
Clouds: Clear
Visibility: 10 miles , 16 km
2018/08/15 09:53 KLLQ 150953Z AUTO 18004KT 10SM CLR 26/22 A2998 RMK AO2 SLP149 T02560222
 
KCDH - Camden, Arkansas
Updated: Wed, Aug-Wed-2018 5:35am
Clear
Clear
 Wind from S
Wind: S 5 mph , 7 km/h
Temperature: 77°F , 25°C
Dew Point: 70°F , 21°C
Humidity: 79%
Barometer: 29.96 inHg , 1014.6 hPa
Clouds: Clear
Visibility: 7 miles , 11 km
2018/08/15 10:35 KCDH 151035Z AUTO 18004KT 7SM CLR 25/21 A2996 RMK AO2
KM19 - Newport, Arkansas
Updated: Wed, Aug-Wed-2018 4:56am
Few Clouds
Few Clouds
 Wind from S
Wind: S 8 mph , 13 km/h
Temperature: 73°F , 23°C
Dew Point: 72°F , 22°C
Humidity: 94%
Barometer: 29.94 inHg , 1013.9 hPa
Clouds: Few Clouds
Cloud details: Few Clouds 12000 ft
2018/08/15 09:56 KM19 150956Z AUTO 18007KT FEW120 23/22 A2994 RMK AO2 SLP141 T02280217 PWINO $
KDEQ - De Queen, Arkansas
Updated: Wed, Aug-Wed-2018 4:53am
Mist, Clear
Mist, Clear
 Wind from NNE
Wind: NNE 3 mph , 6 km/h
Temperature: 73°F , 23°C
Dew Point: 73°F , 23°C
Humidity: 100%
Barometer: 29.93 inHg , 1013.5 hPa
Summary: Mist
Clouds: Clear
Visibility: 6 miles , 10 km
2018/08/15 09:53 KDEQ 150953Z AUTO 03003KT 6SM BR CLR 23/23 A2993 RMK AO2 SLP128 T02280228 TSNO
 
KTXK - Texarkana, Arkansas
Updated: Wed, Aug-Wed-2018 4:53am
Clear
Clear
 Wind from SSW
Wind: SSW 8 mph , 13 km/h
Temperature: 75°F , 24°C
Dew Point: 72°F , 22°C
Humidity: 89%
Barometer: 29.96 inHg , 1014.6 hPa
Clouds: Clear
Visibility: 10 miles , 16 km
2018/08/15 09:53 KTXK 150953Z AUTO 20007KT 10SM CLR 24/22 A2996 RMK AO2 SLP140 T02440222
KELD - El Dorado, Arkansas
Updated: Wed, Aug-Wed-2018 4:53am
Clear
Clear
 Wind from calm
Wind: Calm
Temperature: 77°F , 25°C
Dew Point: 73°F , 23°C
Humidity: 89%
Barometer: 29.99 inHg , 1015.6 hPa
Clouds: Clear
Visibility: 10 miles , 16 km
2018/08/15 09:53 KELD 150953Z AUTO 00000KT 10SM CLR 25/23 A2999 RMK AO2 SLP151 T02500228 $
KCSM - Clinton, Oklahoma
Updated: Wed, Aug-Wed-2018 4:53am
Clear
Clear
 Wind from W
Wind: W 7 mph , 11 km/h
Temperature: 70°F , 21°C
Dew Point: 64°F , 18°C
Humidity: 83%
Barometer: 29.93 inHg , 1013.5 hPa
Clouds: Clear
Visibility: 10 miles , 16 km
2018/08/15 09:53 KCSM 150953Z AUTO 27006KT 10SM CLR 21/18 A2993 RMK AO2 SLP108 T02110183
 
KHBR - Hobart, Oklahoma
Updated: Wed, Aug-Wed-2018 4:53am
Clear
Clear
 Wind from NE
Wind: NE 5 mph , 7 km/h
Temperature: 70°F , 21°C
Dew Point: 66°F , 19°C
Humidity: 88%
Barometer: 29.91 inHg , 1012.9 hPa
Clouds: Clear
Visibility: 10 miles , 16 km
2018/08/15 09:53 KHBR 150953Z AUTO 05004KT 10SM CLR 21/19 A2991 RMK AO2 SLP107 T02110189
KLTS - Altus Afb, Oklahoma
Updated: Wed, Aug-Wed-2018 4:56am
Clear
Clear
 Wind from SE
Wind: SE 9 mph , 15 km/h
Temperature: 72°F , 22°C
Dew Point: 66°F , 19°C
Humidity: 83%
Barometer: 29.89 inHg , 1012.2 hPa
Clouds: Clear
Visibility: 10 miles , 16 km
2018/08/15 09:56 KLTS 150956Z AUTO 14008KT 10SM CLR 22/19 A2989 RMK AO2 SLP105 T02200191 $
KFSI - Fort Sill, Oklahoma
Updated: Wed, Aug-Wed-2018 4:56am

 Wind from ESE
Wind: ESE 3 mph , 6 km/h
Visibility: 10 miles , 16 km
2018/08/15 09:56 KFSI 150956Z AUTO 11003KT 10SM M 22/21 A2989 RMK AO2 SLP111 T02240208 CHINO RWY17 $
 
KGAG - Gage, Oklahoma
Updated: Wed, Aug-Wed-2018 4:53am
Clear
Clear
 Wind from NW
Wind: NW 5 mph , 7 km/h
Temperature: 68°F , 20°C
Dew Point: 66°F , 19°C
Humidity: 94%
Barometer: 29.97 inHg , 1014.9 hPa
Clouds: Clear
Visibility: 10 miles , 16 km
2018/08/15 09:53 KGAG 150953Z AUTO 32004KT 10SM CLR 20/19 A2997 RMK AO2 SLP121 T02000189
KWWR - Woodward, Oklahoma
Updated: Wed, Aug-Wed-2018 5:35am
Clear
Clear
 Wind from WNW
Wind: WNW 5 mph , 7 km/h
Temperature: 64°F , 18°C
Dew Point: 63°F , 17°C
Humidity: 94%
Barometer: 30.00 inHg , 1015.9 hPa
Clouds: Clear
Visibility: 10 miles , 16 km
2018/08/15 10:35 KWWR 151035Z AUTO 30004KT 10SM CLR 18/17 A3000 RMK AO2
KLAW - Lawton, Oklahoma
Updated: Wed, Aug-Wed-2018 4:53am
Clear
Clear
 Wind from SSE
Wind: SSE 5 mph , 7 km/h
Temperature: 73°F , 23°C
Dew Point: 70°F , 21°C
Humidity: 89%
Barometer: 29.90 inHg , 1012.5 hPa
Clouds: Clear
Visibility: 10 miles , 16 km
2018/08/15 09:53 KLAW 150953Z AUTO 15004KT 10SM CLR 23/21 A2990 RMK AO2 SLP112 T02280206
 
KOKC - Oklahoma City, Oklahoma
Updated: Wed, Aug-Wed-2018 5:36am
Mostly cloudy
Mostly cloudy
 Wind from ENE
Wind: ENE 3 mph , 6 km/h
Temperature: 72°F , 22°C
Dew Point: 70°F , 21°C
Humidity: 94%
Barometer: 29.90 inHg , 1012.5 hPa
Clouds: Mostly cloudy
Visibility: 10 miles , 16 km
Cloud details: Few Clouds 2200 ft
Partly cloudy 5000 ft
Mostly cloudy 8500 ft
Mostly cloudy 25000 ft
2018/08/15 10:36 KOKC 151036Z 07003KT 10SM FEW022 SCT050 BKN085 BKN250 22/21 A2990 RMK AO2 LTG DSNT NE RAB01E16 TSE35 OCNL LTGIC DSNT NE CB DSNT NE MOV E P0000 T02170206 $
KEND - Enid/Vance Afb, Oklahoma
Updated: Wed, Aug-Wed-2018 4:56am
Few Clouds
Few Clouds
 Wind from calm
Wind: Calm
Temperature: 70°F , 21°C
Dew Point: 70°F , 21°C
Humidity: 100%
Barometer: 29.89 inHg , 1012.2 hPa
Clouds: Few Clouds
Visibility: 10 miles , 16 km
Cloud details: Few Clouds 10000 ft
2018/08/15 09:56 KEND 150956Z AUTO 00000KT 10SM FEW100 21/21 A2989 RMK AO2 SLP111 T02070207 $
KFDR - Frederick/Altus, Oklahoma
Updated: Wed, Aug-Wed-2018 4:53am
Clear
Clear
 Wind from SW
Wind: SW 7 mph , 11 km/h
Temperature: 73°F , 23°C
Dew Point: 68°F , 20°C
Humidity: 83%
Barometer: 29.86 inHg , 1011.2 hPa
Clouds: Clear
Visibility: 10 miles , 16 km
2018/08/15 09:53 KFDR 150953Z AUTO 22006KT 10SM CLR 23/20 A2986 RMK AO2 SLP092 T02330200
 
KOUN - Norman, Oklahoma
Updated: Wed, Aug-Wed-2018 5:15am
Mostly cloudy
Mostly cloudy
 Wind from WNW
Wind: WNW 5 mph , 7 km/h
Temperature: 72°F , 22°C
Dew Point: 70°F , 21°C
Humidity: 94%
Barometer: 29.88 inHg , 1011.9 hPa
Clouds: Mostly cloudy
Visibility: 10 miles , 16 km
Cloud details: Mostly cloudy 9000 ft
2018/08/15 10:15 KOUN 151015Z AUTO 30004KT 10SM BKN090 22/21 A2988 RMK AO2 LTG DSNT N AND W T02160208
KTIK - Tinker Afb, Oklahoma
Updated: Wed, Aug-Wed-2018 5:24am
Light thunderstorm, Rain, Partly cloudy
Light thunderstorm, Rain, Partly cloudy
 Wind from NNE
Wind: NNE 5 mph , 7 km/h
Temperature: 70°F , 21°C
Dew Point: 70°F , 21°C
Humidity: 100%
Barometer: 29.90 inHg , 1012.5 hPa
Summary: Light thunderstorm, Rain
Clouds: Partly cloudy
Visibility: 10 miles , 16 km
Cloud details: Few Clouds 2100 ft
Few Clouds 4500 ft
Few Clouds 7500 ft
Partly cloudy 9500 ft
Partly cloudy 13000 ft
2018/08/15 10:24 KTIK 151024Z AUTO 02004KT 10SM -TSRA FEW021 FEW045 FEW075 SCT095 SCT130 21/21 A2990 RMK AO2 RAB09 TSB24 SLP121 $
KGOK - Guthrie, Oklahoma
Updated: Wed, Aug-Wed-2018 4:53am
Few Clouds
Few Clouds
 Wind from S
Wind: S 6 mph , 9 km/h
Temperature: 70°F , 21°C
Dew Point: 68°F , 20°C
Humidity: 94%
Barometer: 29.89 inHg , 1012.2 hPa
Clouds: Few Clouds
Visibility: 10 miles , 16 km
Cloud details: Few Clouds 6000 ft
2018/08/15 09:53 KGOK 150953Z AUTO 17005KT 10SM FEW060 21/20 A2989 RMK AO2 LTG DSNT SW SLP113 T02060200
 
KSNL - Shawnee, Oklahoma
Updated: Wed, Aug-Wed-2018 5:35am
Overcast
Overcast
 Wind from calm
Wind: Calm
Temperature: 70°F , 21°C
Dew Point: 68°F , 20°C
Humidity: 94%
Barometer: 29.90 inHg , 1012.5 hPa
Clouds: Overcast
Visibility: 10 miles , 16 km
Cloud details: Partly cloudy 7000 ft
Overcast 8000 ft
2018/08/15 10:35 KSNL 151035Z AUTO 00000KT 10SM SCT070 OVC080 21/20 A2990 RMK AO2 LTG DSNT NW THRU E T02100203
KCQB - Chandler, Oklahoma
Updated: Wed, Aug-Wed-2018 5:35am
Overcast
Overcast
 Wind from E
Wind: E 5 mph , 7 km/h
Temperature: 70°F , 21°C
Dew Point: 70°F , 21°C
Humidity: 100%
Barometer: 29.89 inHg , 1012.2 hPa
Clouds: Overcast
Visibility: 7 miles , 11 km
Cloud details: Overcast 6000 ft
2018/08/15 10:35 KCQB 151035Z AUTO 10004KT 7SM OVC060 21/21 A2989 RMK AO2 LTG DSNT E AND SE T02130209
KPVJ - Pauls Valley, Oklahoma
Updated: Wed, Aug-Wed-2018 5:35am
Clear
Clear
 Wind from SSE
Wind: SSE 3 mph , 6 km/h
Temperature: 72°F , 22°C
Dew Point: 72°F , 22°C
Humidity: 100%
Barometer: 29.89 inHg , 1012.2 hPa
Clouds: Clear
Visibility: 10 miles , 16 km
2018/08/15 10:35 KPVJ 151035Z AUTO 16003KT 10SM CLR 22/22 A2989 RMK AO2 T02230223
 
KEND - Enid/Vance Afb, Oklahoma
Updated: Wed, Aug-Wed-2018 4:56am
Few Clouds
Few Clouds
 Wind from calm
Wind: Calm
Temperature: 70°F , 21°C
Dew Point: 70°F , 21°C
Humidity: 100%
Barometer: 29.89 inHg , 1012.2 hPa
Clouds: Few Clouds
Visibility: 10 miles , 16 km
Cloud details: Few Clouds 10000 ft
2018/08/15 09:56 KEND 150956Z AUTO 00000KT 10SM FEW100 21/21 A2989 RMK AO2 SLP111 T02070207 $
KSWO - Stillwater, Oklahoma
Updated: Wed, Aug-Wed-2018 5:37am
Mist, Few clouds
Mist, Few clouds
 Wind from NNW
Wind: NNW 3 mph , 6 km/h
Temperature: 70°F , 21°C
Dew Point: 66°F , 19°C
Humidity: 88%
Barometer: 29.90 inHg , 1012.5 hPa
Summary: Mist
Clouds: Few Clouds
Visibility: 6 miles , 10 km
Cloud details: Few Clouds 400 ft
2018/08/15 10:37 KSWO 151037Z AUTO 33003KT 6SM BR FEW004 21/19 A2990 RMK AO2 T02060194
KFSI - Fort Sill, Oklahoma
Updated: Wed, Aug-Wed-2018 4:56am

 Wind from ESE
Wind: ESE 3 mph , 6 km/h
Visibility: 10 miles , 16 km
2018/08/15 09:56 KFSI 150956Z AUTO 11003KT 10SM M 22/21 A2989 RMK AO2 SLP111 T02240208 CHINO RWY17 $
 
KDUC - Duncan, Oklahoma
Updated: Wed, Aug-Wed-2018 5:35am
Clear
Clear
 Wind from S
Wind: S 5 mph , 7 km/h
Temperature: 75°F , 24°C
Dew Point: 70°F , 21°C
Humidity: 83%
Barometer: 29.92 inHg , 1013.2 hPa
Clouds: Clear
Visibility: 10 miles , 16 km
2018/08/15 10:35 KDUC 151035Z AUTO 19004KT 10SM CLR 24/21 A2992 RMK AO2 T02360207
KOKM - Okmulgee, Oklahoma
Updated: Tue, Aug-Tue-2018 7:15pm
NOT Current
Clear
Clear
 Wind from S
Wind: S 12 mph , 19 km/h
Temperature: 79°F , 26°C
Dew Point: 70°F , 21°C
Humidity: 74%
Barometer: 29.88 inHg , 1011.9 hPa
Clouds: Clear
Visibility: 10 miles , 16 km
2018/08/15 00:15 KOKM 150015Z AUTO 19010KT 10SM CLR 26/21 A2988 RMK AO2 T02610214
KMLC - Mcalester, Oklahoma
Updated: Wed, Aug-Wed-2018 5:31am
Nearby thunderstorm, Overcast
Nearby thunderstorm, Overcast
 Wind from ENE
Wind: ENE 5 mph , 7 km/h
Temperature: 72°F , 22°C
Dew Point: 72°F , 22°C
Humidity: 100%
Barometer: 29.92 inHg , 1013.2 hPa
Summary: Nearby Thunderstorm
Clouds: Overcast
Visibility: 10 miles , 16 km
Cloud details: Overcast 6500 ft
2018/08/15 10:31 KMLC 151031Z AUTO 06004KT 10SM VCTS OVC065 22/22 A2992 RMK AO2 LTG DSNT N-E RAE26 P0002 T02220217
 
KMKO - Muskogee, Oklahoma
Updated: Wed, Aug-Wed-2018 4:53am
Rain, Mist, Overcast
Rain, Mist, Overcast
 Wind from E
Wind: E 3 mph , 6 km/h
Temperature: 72°F , 22°C
Dew Point: 72°F , 22°C
Humidity: 100%
Barometer: 29.91 inHg , 1012.9 hPa
Summary: Rain, Mist
Clouds: Overcast
Visibility: 5 miles , 8 km
Cloud details: Mostly cloudy 8000 ft
Overcast 11000 ft
2018/08/15 09:53 KMKO 150953Z AUTO 08003KT 5SM RA BR BKN080 OVC110 22/22 A2991 RMK AO2 SLP122 P0017 T02220222
KRVS - Tulsa, Oklahoma
Updated: Wed, Aug-Wed-2018 5:33am
Nearby thunderstorm, Heavy rain, Mist, Overcast
Nearby thunderstorm, Heavy rain, Mist, Overcast
 Wind from SE
Wind: SE 5 mph , 7 km/h
Temperature: 70°F , 21°C
Dew Point: 70°F , 21°C
Humidity: 100%
Barometer: 29.91 inHg , 1012.9 hPa
Summary: Nearby thunderstorm, Heavy rain, Mist
Clouds: Overcast
Visibility: 1 1/4 miles , 2 km
Cloud details: Overcast 3900 ft
2018/08/15 10:33 KRVS 151033Z AUTO 13004KT 1 1/4SM VCTS +RA BR OVC039 21/21 A2991 RMK AO2 LTG DSNT S AND SW P0040 T02110206
KGZL - Stigler, Oklahoma
Updated: Wed, Aug-Wed-2018 5:35am
Nearby Thunderstorm
Nearby Thunderstorm
 Wind from SSW
Wind: SSW 7 mph , 11 km/h
Temperature: 73°F , 23°C
Dew Point: 73°F , 23°C
Humidity: 100%
Barometer: 29.94 inHg , 1013.9 hPa
Summary: Nearby Thunderstorm
Visibility: 7 miles , 11 km
2018/08/15 10:35 KGZL 151035Z AUTO 20006KT 7SM VCTS 23/23 A2994 RMK AO2 LTG DSNT ALQDS
 
KADH - Ada, Oklahoma
Updated: Wed, Aug-Wed-2018 5:35am
Clear
Clear
 Wind from SSW
Wind: SSW 7 mph , 11 km/h
Temperature: 73°F , 23°C
Dew Point: 72°F , 22°C
Humidity: 94%
Barometer: 29.91 inHg , 1012.9 hPa
Clouds: Clear
Visibility: 10 miles , 16 km
2018/08/15 10:35 KADH 151035Z AUTO 21006KT 10SM CLR 23/22 A2991 RMK AO2 LTG DSNT E
KAQR - Atoka, Oklahoma
Updated: Wed, Aug-Wed-2018 5:35am
Clear
Clear
 Wind from N
Wind: N 3 mph , 6 km/h
Temperature: 75°F , 24°C
Dew Point: 72°F , 22°C
Humidity: 89%
Barometer: 29.92 inHg , 1013.2 hPa
Clouds: Clear
Visibility: 10 miles , 16 km
2018/08/15 10:35 KAQR 151035Z AUTO 01003KT 10SM CLR 24/22 A2992 RMK AO2
KJSV - Sallisaw, Oklahoma
Updated: Wed, Aug-Wed-2018 5:15am
Light drizzle, Mostly cloudy
Light drizzle, Mostly cloudy
 Wind from SE
Wind: SE 3 mph , 6 km/h
Temperature: 72°F , 22°C
Dew Point: 70°F , 21°C
Humidity: 94%
Barometer: 29.94 inHg , 1013.9 hPa
Summary: Light Drizzle
Clouds: Mostly cloudy
Visibility: 7 miles , 11 km
Cloud details: Mostly cloudy 3600 ft
2018/08/15 10:15 KJSV 151015Z AUTO 14003KT 7SM -DZ BKN036 22/21 A2994 RMK AO2 LTG LTG DSNT E THRU SW
 
KTQH - Tahlequah, Oklahoma
Updated: Wed, Aug-Wed-2018 5:35am
Clear
Clear
 Wind from calm
Wind: Calm
Temperature: 70°F , 21°C
Dew Point: 70°F , 21°C
Humidity: 100%
Barometer: 29.93 inHg , 1013.5 hPa
Clouds: Clear
Visibility: 7 miles , 11 km
2018/08/15 10:35 KTQH 151035Z AUTO 00000KT 7SM CLR 21/21 A2993 RMK AO2 P0001
KGCM - Claremore, Oklahoma
Updated: Wed, Aug-Wed-2018 5:35am
Heavy rain, Overcast
Heavy rain, Overcast
 Wind from SW
Wind: SW 8 mph , 13 km/h
Temperature: 68°F , 20°C
Dew Point: 66°F , 19°C
Humidity: 94%
Barometer: 29.93 inHg , 1013.5 hPa
Summary: Heavy rain
Clouds: Overcast
Visibility: 2 1/2 miles , 2 km
Cloud details: Partly cloudy 3100 ft
Mostly cloudy 4100 ft
Overcast 9000 ft
2018/08/15 10:35 KGCM 151035Z AUTO 22007KT 2 1/2SM +RA SCT031 BKN041 OVC090 20/19 A2993 RMK AO2 P0013 LTG LTG DSNT S
KRKR - Poteau, Oklahoma
Updated: Wed, Aug-Wed-2018 5:35am

 Wind from E
Wind: E 3 mph , 6 km/h
Visibility: 10 miles , 16 km
2018/08/15 10:35 KRKR 151035Z AUTO 09003KT 10SM -VCTSRA SCT033 SCT065 OVC090 21/20 A2994 RMK AO2 P0006 LTG DSNT ALQS
 
KGMJ - Grove, Oklahoma
Updated: Wed, Aug-Wed-2018 5:35am
Overcast
Overcast
 Wind from SSW
Wind: SSW 5 mph , 7 km/h
Temperature: 73°F , 23°C
Dew Point: 72°F , 22°C
Humidity: 94%
Barometer: 29.92 inHg , 1013.2 hPa
Clouds: Overcast
Visibility: 10 miles , 16 km
Cloud details: Partly cloudy 1600 ft
Partly cloudy 6000 ft
Overcast 9500 ft
2018/08/15 10:35 KGMJ 151035Z AUTO 21004KT 10SM SCT016 SCT060 OVC095 23/22 A2992 RMK AO2
K4O4 - Idabel, Oklahoma
Updated: Wed, Aug-Wed-2018 5:35am
Clear
Clear
 Wind from calm
Wind: Calm
Temperature: 75°F , 24°C
Dew Point: 68°F , 20°C
Humidity: 78%
Barometer: 29.94 inHg , 1013.9 hPa
Clouds: Clear
Visibility: 10 miles , 16 km
2018/08/15 10:35 K4O4 151035Z AUTO 00000KT 10SM CLR 24/20 A2994 RMK AO2
KHHW - Hugo, Oklahoma
Updated: Wed, Aug-Wed-2018 5:35am
Partly cloudy
Partly cloudy
 Wind from S
Wind: S 8 mph , 13 km/h
Temperature: 77°F , 25°C
Dew Point: 72°F , 22°C
Humidity: 83%
Barometer: 29.93 inHg , 1013.5 hPa
Clouds: Partly cloudy
Visibility: 10 miles , 16 km
Cloud details: Partly cloudy 12000 ft
2018/08/15 10:35 KHHW 151035Z AUTO 18007KT 10SM SCT120 25/22 A2993 RMK AO2 LTG DSNT N AND NE T02530222
 
KDUA - Durant, Oklahoma
Updated: Wed, Aug-Wed-2018 5:35am
Clear
Clear
 Wind from SSW
Wind: SSW 10 mph , 17 km/h
Temperature: 79°F , 26°C
Dew Point: 72°F , 22°C
Humidity: 79%
Barometer: 29.92 inHg , 1013.2 hPa
Clouds: Clear
Visibility: 10 miles , 16 km
2018/08/15 10:35 KDUA 151035Z AUTO 20009KT 10SM CLR 26/22 A2992 RMK AO2
KSTJ - St. Joseph, Missouri
Updated: Wed, Aug-Wed-2018 4:53am
Mostly cloudy
Mostly cloudy
 Wind from calm
Wind: Calm
Temperature: 72°F , 22°C
Dew Point: 72°F , 22°C
Humidity: 100%
Barometer: 29.85 inHg , 1010.8 hPa
Clouds: Mostly cloudy
Visibility: 8 miles , 13 km
Cloud details: Mostly cloudy 800 ft
2018/08/15 09:53 KSTJ 150953Z AUTO 00000KT 8SM BKN008 22/22 A2985 RMK AO2 SLP101 T02170217
KMCI - Kansas City/Intl, Missouri
Updated: Wed, Aug-Wed-2018 4:53am
Overcast
Overcast
 Wind from S
Wind: S 3 mph , 6 km/h
Temperature: 72°F , 22°C
Dew Point: 72°F , 22°C
Humidity: 100%
Barometer: 29.86 inHg , 1011.2 hPa
Clouds: Overcast
Visibility: 7 miles , 11 km
Cloud details: Mostly cloudy 1100 ft
Mostly cloudy 1700 ft
Overcast 3200 ft
2018/08/15 09:53 KMCI 150953Z 19003KT 7SM BKN011 BKN017 OVC032 22/22 A2986 RMK AO2 SLP103 T02220217
 
KMKC - Kansas City/Dntn, Missouri
Updated: Wed, Aug-Wed-2018 5:09am
Overcast
Overcast
 Wind from SSW
Wind: SSW 6 mph , 9 km/h
Temperature: 73°F , 23°C
Dew Point: 70°F , 21°C
Humidity: 89%
Barometer: 29.85 inHg , 1010.8 hPa
Clouds: Overcast
Visibility: 10 miles , 16 km
Cloud details: Mostly cloudy 1700 ft
Overcast 4800 ft
2018/08/15 10:09 KMKC 151009Z 20005KT 10SM BKN017 OVC048 23/21 A2985 RMK AO2 T02330211 $
KCDJ - Chillicothe, Missouri
Updated: Wed, Aug-Wed-2018 4:52am

 Wind from calm
Wind: Calm
Temperature: 70°F , 21°C
Dew Point: 70°F , 21°C
Humidity: 100%
Barometer: 29.88 inHg , 1011.9 hPa
2018/08/15 09:52 KCDJ 150952Z AUTO 00000KT 21/21 A2988 RMK AO1 SLP107 T02110206
KIRK - Kirksville, Missouri
Updated: Wed, Aug-Wed-2018 4:55am
Few Clouds
Few Clouds
 Wind from calm
Wind: Calm
Temperature: 66°F , 19°C
Dew Point: 66°F , 19°C
Humidity: 100%
Barometer: 29.90 inHg , 1012.5 hPa
Clouds: Few Clouds
Visibility: 10 miles , 16 km
Cloud details: Few Clouds 7000 ft
2018/08/15 09:55 KIRK 150955Z AUTO 00000KT 10SM FEW070 19/19 A2990 RMK AO2 SLP122 T01940189
 
KSZL - Whiteman Afb, Missouri
Updated: Wed, Aug-Wed-2018 4:56am
Overcast
Overcast
 Wind from SSW
Wind: SSW 6 mph , 9 km/h
Temperature: 72°F , 22°C
Dew Point: 70°F , 21°C
Humidity: 94%
Barometer: 29.83 inHg , 1010.2 hPa
Clouds: Overcast
Visibility: 10 miles , 16 km
Cloud details: Mostly cloudy 1500 ft
Overcast 7500 ft
2018/08/15 09:56 KSZL 150956Z 20005KT 10SM BKN015 OVC075 22/21 A2983 RMK AO2A CIG 015 RWY01 SLP096 T02210212 $
KDMO - Sedalia, Missouri
Updated: Wed, Aug-Wed-2018 4:53am
Mostly cloudy
Mostly cloudy
 Wind from S
Wind: S 8 mph , 13 km/h
Temperature: 72°F , 22°C
Dew Point: 70°F , 21°C
Humidity: 94%
Barometer: 29.89 inHg , 1012.2 hPa
Clouds: Mostly cloudy
Visibility: 10 miles , 16 km
Cloud details: Partly cloudy 7000 ft
Mostly cloudy 12000 ft
2018/08/15 09:53 KDMO 150953Z AUTO 17007KT 10SM SCT070 BKN120 22/21 A2989 RMK AO2 SLP112 T02220211
KGLY - Clinton, Missouri
Updated: Wed, Aug-Wed-2018 5:15am
Overcast
Overcast
 Wind from S
Wind: S 5 mph , 7 km/h
Temperature: 72°F , 22°C
Dew Point: 70°F , 21°C
Humidity: 94%
Barometer: 29.88 inHg , 1011.9 hPa
Clouds: Overcast
Visibility: 10 miles , 16 km
Cloud details: Overcast 1200 ft
2018/08/15 10:15 KGLY 151015Z AUTO 19004KT 10SM OVC012 22/21 A2988 RMK AO2
 
KCOU - Columbia, Missouri
Updated: Wed, Aug-Wed-2018 5:24am
Overcast
Overcast
 Wind from S
Wind: S 6 mph , 9 km/h
Temperature: 72°F , 22°C
Dew Point: 70°F , 21°C
Humidity: 94%
Barometer: 29.89 inHg , 1012.2 hPa
Clouds: Overcast
Visibility: 10 miles , 16 km
Cloud details: Few Clouds 900 ft
Mostly cloudy 2300 ft
Overcast 3200 ft
2018/08/15 10:24 KCOU 151024Z AUTO 17005KT 10SM FEW009 BKN023 OVC032 22/21 A2989 RMK AO2 T02170206 $
KJEF - Jefferson City, Missouri
Updated: Wed, Aug-Wed-2018 5:34am
Light rain, Overcast
Light rain, Overcast
 Wind from SSE
Wind: SSE 5 mph , 7 km/h
Temperature: 72°F , 22°C
Dew Point: 70°F , 21°C
Humidity: 94%
Barometer: 29.89 inHg , 1012.2 hPa
Summary: Light rain
Clouds: Overcast
Visibility: 9 miles , 14 km
Cloud details: Mostly cloudy 900 ft
Overcast 3100 ft
2018/08/15 10:34 KJEF 151034Z AUTO 15004KT 9SM -RA BKN009 OVC031 22/21 A2989 RMK AO2 RAB0957E20B29 CIG 007V010 P0001 T02220211
KVIH - Vichy/Rolla, Missouri
Updated: Wed, Aug-Wed-2018 5:37am
Rain, Mist, Overcast
Rain, Mist, Overcast
 Wind from S
Wind: S 8 mph , 13 km/h
Temperature: 70°F , 21°C
Dew Point: 66°F , 19°C
Humidity: 88%
Barometer: 29.93 inHg , 1013.5 hPa
Summary: Rain, Mist
Clouds: Overcast
Visibility: 5 miles , 8 km
Cloud details: Partly cloudy 800 ft
Mostly cloudy 7000 ft
Overcast 12000 ft
2018/08/15 10:37 KVIH 151037Z AUTO 18007KT 5SM RA BR SCT008 BKN070 OVC120 21/19 A2993 RMK AO2 LTG DSNT E-SW P0030 T02060194
 
KTBN - Fort Leonard Wood, Missouri
Updated: Wed, Aug-Wed-2018 5:34am
Heavy rain, Mist, Overcast
Heavy rain, Mist, Overcast
 Wind from SSW
Wind: SSW 5 mph , 7 km/h
Temperature: 70°F , 21°C
Dew Point: 68°F , 20°C
Humidity: 94%
Barometer: 29.93 inHg , 1013.5 hPa
Summary: Heavy rain, Mist
Clouds: Overcast
Visibility: 1 1/8 miles , 2 km
Cloud details: Few Clouds 600 ft
Mostly cloudy 2600 ft
Overcast 4000 ft
2018/08/15 10:34 KTBN 151034Z AUTO 20004KT 1 1/8SM R14/2800FT +RA BR FEW006 BKN026 OVC040 21/20 A2993 RMK AO2 VIS 3/4V1 3/8 TSE0959 CIG 011 RWY32 SLP128 $
KJLN - Joplin, Missouri
Updated: Wed, Aug-Wed-2018 5:06am
Overcast
Overcast
 Wind from SSW
Wind: SSW 7 mph , 11 km/h
Temperature: 72°F , 22°C
Dew Point: 70°F , 21°C
Humidity: 94%
Barometer: 29.90 inHg , 1012.5 hPa
Clouds: Overcast
Visibility: 10 miles , 16 km
Cloud details: Few Clouds 900 ft
Mostly cloudy 9000 ft
Overcast 11000 ft
2018/08/15 10:06 KJLN 151006Z AUTO 21006KT 10SM FEW009 BKN090 OVC110 22/21 A2990 RMK AO2 T02170206
KHFJ - Monett, Missouri
Updated: Wed, Aug-Wed-2018 5:10am
Overcast
Overcast
 Wind from S
Wind: S 8 mph , 13 km/h
Temperature: 70°F , 21°C
Dew Point: 70°F , 21°C
Humidity: 100%
Barometer: 29.93 inHg , 1013.5 hPa
Clouds: Overcast
Visibility: 7 miles , 11 km
Cloud details: Partly cloudy 700 ft
Mostly cloudy 1100 ft
Overcast 8000 ft
2018/08/15 10:10 KHFJ 151010Z AUTO 19007KT 7SM SCT007 BKN011 OVC080 21/21 A2993 RMK AO2
 
KSGF - Springfield, Missouri
Updated: Wed, Aug-Wed-2018 5:30am
Overcast
Overcast
 Wind from SSW
Wind: SSW 5 mph , 7 km/h
Temperature: 70°F , 21°C
Dew Point: 68°F , 20°C
Humidity: 94%
Barometer: 29.92 inHg , 1013.2 hPa
Clouds: Overcast
Visibility: 10 miles , 16 km
Cloud details: Few Clouds 1400 ft
Mostly cloudy 4500 ft
Overcast 5000 ft
2018/08/15 10:30 KSGF 151030Z 20004KT 10SM FEW014 BKN045 OVC050 21/20 A2992 RMK AO2 LTG DSNT SE AND S RAB0955E06 P0000 T02110200
KBBG - Branson, Missouri
Updated: Wed, Aug-Wed-2018 5:15am
Light rain, Mostly cloudy
Light rain, Mostly cloudy
 Wind from calm
Wind: Calm
Temperature: 70°F , 21°C
Dew Point: 70°F , 21°C
Humidity: 100%
Barometer: 29.96 inHg , 1014.6 hPa
Summary: Light rain
Clouds: Mostly cloudy
Visibility: 3 miles , 5 km
Cloud details: Few Clouds 500 ft
Partly cloudy 2600 ft
Mostly cloudy 3200 ft
2018/08/15 10:15 KBBG 151015Z AUTO 00000KT 3SM -RA FEW005 SCT026 BKN032 21/21 A2996 RMK AO2 LTG DSNT NE P0002
KUNO - West Plains, Missouri
Updated: Wed, Aug-Wed-2018 4:53am
Overcast
Overcast
 Wind from SSE
Wind: SSE 9 mph , 15 km/h
Temperature: 72°F , 22°C
Dew Point: 70°F , 21°C
Humidity: 94%
Barometer: 29.93 inHg , 1013.5 hPa
Clouds: Overcast
Visibility: 8 miles , 13 km
Cloud details: Overcast 6000 ft
2018/08/15 09:53 KUNO 150953Z AUTO 16008KT 8SM OVC060 22/21 A2993 RMK AO2 LTG DSNT NW-E RAE31 SLP122 P0008 T02220211 $
 
KFAM - Farmington, Missouri
Updated: Wed, Aug-Wed-2018 5:26am
Heavy rain, Mist, Overcast
Heavy rain, Mist, Overcast
 Wind from calm
Wind: Calm
Temperature: 70°F , 21°C
Dew Point: 68°F , 20°C
Humidity: 94%
Barometer: 29.97 inHg , 1014.9 hPa
Summary: Heavy rain, Mist
Clouds: Overcast
Visibility: 2 1/2 miles , 2 km
Cloud details: Few Clouds 500 ft
Mostly cloudy 4200 ft
Overcast 11000 ft
2018/08/15 10:26 KFAM 151026Z AUTO 00000KT 2 1/2SM +RA BR FEW005 BKN042 OVC110 21/20 A2997 RMK AO2 LTG DSNT S P0014
KCGI - Cape Girardeau, Missouri
Updated: Wed, Aug-Wed-2018 5:34am
Nearby thunderstorm, Light rain, Mist, Overcast
Nearby thunderstorm, Light rain, Mist, Overcast
 Wind from NW
Wind: NW 5 mph , 7 km/h
Temperature: 72°F , 22°C
Dew Point: 70°F , 21°C
Humidity: 94%
Barometer: 29.97 inHg , 1014.9 hPa
Summary: Nearby thunderstorm, Light rain, Mist
Clouds: Overcast
Visibility: 4 miles , 6 km
Cloud details: Few Clouds 3400 ft
Mostly cloudy 5000 ft
Overcast 6500 ft
2018/08/15 10:34 KCGI 151034Z AUTO 32004KT 4SM R10/4000VP6000FT VCTS -RA BR FEW034 BKN050 OVC065 22/21 A2997 RMK AO2 LTG DSNT NW RAB24 P0012 T02170206 $
KSTL - St. Louis, Missouri
Updated: Wed, Aug-Wed-2018 4:51am
Overcast
Overcast
 Wind from S
Wind: S 7 mph , 11 km/h
Temperature: 73°F , 23°C
Dew Point: 70°F , 21°C
Humidity: 89%
Barometer: 29.93 inHg , 1013.5 hPa
Clouds: Overcast
Visibility: 10 miles , 16 km
Cloud details: Few Clouds 5500 ft
Mostly cloudy 17000 ft
Overcast 20000 ft
2018/08/15 09:51 KSTL 150951Z 17006KT 10SM FEW055 BKN170 OVC200 23/21 A2993 RMK AO2 SLP122 T02280211
 
KPOF - Popular Bluff, Missouri
Updated: Wed, Aug-Wed-2018 4:53am
Overcast
Overcast
 Wind from ESE
Wind: ESE 5 mph , 7 km/h
Temperature: 72°F , 22°C
Dew Point: 70°F , 21°C
Humidity: 94%
Barometer: 29.94 inHg , 1013.9 hPa
Clouds: Overcast
Visibility: 10 miles , 16 km
Cloud details: Overcast 8500 ft
2018/08/15 09:53 KPOF 150953Z AUTO 11004KT 10SM OVC085 22/21 A2994 RMK AO2 LTG DSNT N AND NW SLP134 T02170211
KSET - St. Charles, Missouri
Updated: Wed, Aug-Wed-2018 4:54am
Mostly cloudy
Mostly cloudy
 Wind from ESE
Wind: ESE 3 mph , 6 km/h
Temperature: 72°F , 22°C
Dew Point: 72°F , 22°C
Humidity: 100%
Barometer: 29.91 inHg , 1012.9 hPa
Clouds: Mostly cloudy
Visibility: 9 miles , 14 km
Cloud details: Mostly cloudy 6000 ft
2018/08/15 09:54 KSET 150954Z AUTO 11003KT 9SM BKN060 22/22 A2991 RMK AO2 SLP122 T02170217 PNO $
KGLD - Goodland, Kansas
Updated: Wed, Aug-Wed-2018 4:53am
Clear
Clear
 Wind from WSW
Wind: WSW 7 mph , 11 km/h
Temperature: 61°F , 16°C
Dew Point: 57°F , 14°C
Humidity: 88%
Barometer: 30.05 inHg , 1017.6 hPa
Clouds: Clear
Visibility: 10 miles , 16 km
2018/08/15 09:53 KGLD 150953Z AUTO 24006KT 10SM CLR 16/14 A3005 RMK AO2 SLP134 T01560139
 
KHLC - Hill City, Kansas
Updated: Wed, Aug-Wed-2018 4:53am
Mist, Overcast
Mist, Overcast
 Wind from WSW
Wind: WSW 3 mph , 6 km/h
Temperature: 63°F , 17°C
Dew Point: 61°F , 16°C
Humidity: 94%
Barometer: 30.00 inHg , 1015.9 hPa
Summary: Mist
Clouds: Overcast
Visibility: 5 miles , 8 km
Cloud details: Overcast 1100 ft
2018/08/15 09:53 KHLC 150953Z AUTO 24003KT 5SM BR OVC011 17/16 A3000 RMK AO2 SLP141 T01670161
KHYS - Hays Muni, Kansas
Updated: Wed, Aug-Wed-2018 5:31am
Partly cloudy
Partly cloudy
 Wind from NNW
Wind: NNW 7 mph , 11 km/h
Temperature: 66°F , 19°C
Dew Point: 64°F , 18°C
Humidity: 94%
Barometer: 29.97 inHg , 1014.9 hPa
Clouds: Partly cloudy
Visibility: 8 miles , 13 km
Cloud details: Partly cloudy 2500 ft
2018/08/15 10:31 KHYS 151031Z AUTO 34006KT 8SM SCT025 19/18 A2997 RMK AO2
KRSL - Russell, Kansas
Updated: Wed, Aug-Wed-2018 5:16am
Mist, Overcast
Mist, Overcast
 Wind from NW
Wind: NW 7 mph , 11 km/h
Temperature: 66°F , 19°C
Dew Point: 66°F , 19°C
Humidity: 100%
Barometer: 29.94 inHg , 1013.9 hPa
Summary: Mist
Clouds: Overcast
Visibility: 4 miles , 6 km
Cloud details: Partly cloudy 200 ft
Overcast 1100 ft
2018/08/15 10:16 KRSL 151016Z AUTO 32006KT 4SM BR SCT002 OVC011 19/19 A2994 RMK AO2 CIG 007V012 T01890189
 
KGBD - Great Bend, Kansas
Updated: Wed, Aug-Wed-2018 4:56am
Overcast
Overcast
 Wind from NW
Wind: NW 5 mph , 7 km/h
Temperature: 66°F , 19°C
Dew Point: 66°F , 19°C
Humidity: 100%
Barometer: 29.95 inHg , 1014.2 hPa
Clouds: Overcast
Visibility: 10 miles , 16 km
Cloud details: Mostly cloudy 800 ft
Overcast 2500 ft
2018/08/15 09:56 KGBD 150956Z AUTO 32004KT 10SM BKN008 OVC025 19/19 A2995 RMK AO2 SLP128 T01940189
KDDC - Dodge City, Kansas
Updated: Wed, Aug-Wed-2018 5:12am
Mist, Mostly cloudy
Mist, Mostly cloudy
 Wind from NW
Wind: NW 6 mph , 9 km/h
Temperature: 61°F , 16°C
Dew Point: 59°F , 15°C
Humidity: 94%
Barometer: 30.00 inHg , 1015.9 hPa
Summary: Mist
Clouds: Mostly cloudy
Visibility: 6 miles , 10 km
Cloud details: Mostly cloudy 1200 ft
2018/08/15 10:12 KDDC 151012Z AUTO 31005KT 6SM BR BKN012 16/15 A3000 RMK AO2 T01610150
KPTT - Pratt Indust, Kansas
Updated: Wed, Aug-Wed-2018 5:15am
Overcast
Overcast
 Wind from NNW
Wind: NNW 8 mph , 13 km/h
Temperature: 68°F , 20°C
Dew Point: 66°F , 19°C
Humidity: 94%
Barometer: 29.95 inHg , 1014.2 hPa
Clouds: Overcast
Visibility: 7 miles , 11 km
Cloud details: Overcast 600 ft
2018/08/15 10:15 KPTT 151015Z AUTO 34007KT 7SM OVC006 20/19 A2995 RMK AO2 T01960190
 
KSLN - Salina, Kansas
Updated: Wed, Aug-Wed-2018 5:33am
Mostly cloudy
Mostly cloudy
 Wind from NNW
Wind: NNW 8 mph , 13 km/h
Temperature: 70°F , 21°C
Dew Point: 70°F , 21°C
Humidity: 100%
Barometer: 29.90 inHg , 1012.5 hPa
Clouds: Mostly cloudy
Visibility: 10 miles , 16 km
Cloud details: Partly cloudy 700 ft
Mostly cloudy 4800 ft
2018/08/15 10:33 KSLN 151033Z AUTO 34007KT 10SM SCT007 BKN048 21/21 A2990 RMK AO2 T02110211
KHUT - Hutchinson, Kansas
Updated: Wed, Aug-Wed-2018 4:52am
Overcast
Overcast
 Wind from NW
Wind: NW 6 mph , 9 km/h
Temperature: 70°F , 21°C
Dew Point: 70°F , 21°C
Humidity: 100%
Barometer: 29.90 inHg , 1012.5 hPa
Clouds: Overcast
Visibility: 9 miles , 14 km
Cloud details: Partly cloudy 700 ft
Overcast 4600 ft
2018/08/15 09:52 KHUT 150952Z AUTO 32005KT 9SM SCT007 OVC046 21/21 A2990 RMK AO2 SLP105 T02060206
KGCK - Garden City, Kansas
Updated: Wed, Aug-Wed-2018 4:54am
Clear
Clear
 Wind from NW
Wind: NW 7 mph , 11 km/h
Temperature: 57°F , 14°C
Dew Point: 55°F , 13°C
Humidity: 94%
Barometer: 30.01 inHg , 1016.3 hPa
Clouds: Clear
Visibility: 9 miles , 14 km
2018/08/15 09:54 KGCK 150954Z AUTO 32006KT 9SM CLR 14/13 A3001 RMK AO2 SLP136 T01440133
 
KP28 - Medicine Lodge, Kansas
Updated: Wed, Aug-Wed-2018 4:56am

 Wind from NNW
Wind: NNW 6 mph , 9 km/h
Temperature: 66°F , 19°C
Dew Point: 66°F , 19°C
Humidity: 100%
Barometer: 29.91 inHg , 1012.9 hPa
2018/08/15 09:56 KP28 150956Z AUTO 33005KT 19/19 A2991 RMK AO1 SLP115 T01940194
KICT - Wichita, Kansas
Updated: Wed, Aug-Wed-2018 4:53am
Mostly cloudy
Mostly cloudy
 Wind from NW
Wind: NW 9 mph , 15 km/h
Temperature: 72°F , 22°C
Dew Point: 70°F , 21°C
Humidity: 94%
Barometer: 29.89 inHg , 1012.2 hPa
Clouds: Mostly cloudy
Visibility: 10 miles , 16 km
Cloud details: Mostly cloudy 6500 ft
Mostly cloudy 12000 ft
Mostly cloudy 20000 ft
2018/08/15 09:53 KICT 150953Z 32008KT 10SM BKN065 BKN120 BKN200 22/21 A2989 RMK AO2 SLP108 T02170211 $
KRSL - Russell, Kansas
Updated: Wed, Aug-Wed-2018 5:16am
Mist, Overcast
Mist, Overcast
 Wind from NW
Wind: NW 7 mph , 11 km/h
Temperature: 66°F , 19°C
Dew Point: 66°F , 19°C
Humidity: 100%
Barometer: 29.94 inHg , 1013.9 hPa
Summary: Mist
Clouds: Overcast
Visibility: 4 miles , 6 km
Cloud details: Partly cloudy 200 ft
Overcast 1100 ft
2018/08/15 10:16 KRSL 151016Z AUTO 32006KT 4SM BR SCT002 OVC011 19/19 A2994 RMK AO2 CIG 007V012 T01890189
 
KMHK - Manhattan, Kansas
Updated: Wed, Aug-Wed-2018 5:23am
Overcast
Overcast
 Wind from NNW
Wind: NNW 3 mph , 6 km/h
Temperature: 72°F , 22°C
Dew Point: 70°F , 21°C
Humidity: 94%
Barometer: 29.87 inHg , 1011.5 hPa
Clouds: Overcast
Visibility: 8 miles , 13 km
Cloud details: Mostly cloudy 700 ft
Overcast 1200 ft
2018/08/15 10:23 KMHK 151023Z AUTO 33003KT 8SM BKN007 OVC012 22/21 A2987 RMK AO2 T02220211
KEMP - Emporia, Kansas
Updated: Wed, Aug-Wed-2018 4:53am
Overcast
Overcast
 Wind from WSW
Wind: WSW 5 mph , 7 km/h
Temperature: 72°F , 22°C
Dew Point: 70°F , 21°C
Humidity: 94%
Barometer: 29.87 inHg , 1011.5 hPa
Clouds: Overcast
Visibility: 8 miles , 13 km
Cloud details: Overcast 700 ft
2018/08/15 09:53 KEMP 150953Z AUTO 25004KT 8SM OVC007 22/21 A2987 RMK AO2 SLP104 T02170206
KTOP - Topeka, Kansas
Updated: Wed, Aug-Wed-2018 4:53am
Overcast
Overcast
 Wind from SW
Wind: SW 3 mph , 6 km/h
Temperature: 73°F , 23°C
Dew Point: 72°F , 22°C
Humidity: 94%
Barometer: 29.85 inHg , 1010.8 hPa
Clouds: Overcast
Visibility: 10 miles , 16 km
Cloud details: Overcast 1000 ft
2018/08/15 09:53 KTOP 150953Z AUTO 22003KT 10SM OVC010 23/22 A2985 RMK AO2 RAE08 CIG 008V013 SLP099 P0004 T02280222
 
KCNU - Chanute, Kansas
Updated: Wed, Aug-Wed-2018 5:09am
Mostly cloudy
Mostly cloudy
 Wind from SSW
Wind: SSW 10 mph , 17 km/h
Temperature: 72°F , 22°C
Dew Point: 72°F , 22°C
Humidity: 100%
Barometer: 29.88 inHg , 1011.9 hPa
Clouds: Mostly cloudy
Visibility: 10 miles , 16 km
Cloud details: Few Clouds 500 ft
Mostly cloudy 2300 ft
Mostly cloudy 4600 ft
2018/08/15 10:09 KCNU 151009Z AUTO 20009KT 10SM FEW005 BKN023 BKN046 22/22 A2988 RMK AO2 T02170217
KLWC - Lawrence, Kansas
Updated: Wed, Aug-Wed-2018 4:52am
Overcast
Overcast
 Wind from calm
Wind: Calm
Temperature: 73°F , 23°C
Dew Point: 72°F , 22°C
Humidity: 94%
Barometer: 29.85 inHg , 1010.8 hPa
Clouds: Overcast
Visibility: 10 miles , 16 km
Cloud details: Few Clouds 1000 ft
Overcast 4400 ft
2018/08/15 09:52 KLWC 150952Z AUTO 00000KT 10SM FEW010 OVC044 23/22 A2985 RMK AO2 SLP101 T02280217
KPPF - Parsons, Kansas
Updated: Wed, Aug-Wed-2018 5:17am
Light rain, Overcast
Light rain, Overcast
 Wind from SSW
Wind: SSW 3 mph , 6 km/h
Temperature: 72°F , 22°C
Dew Point: 72°F , 22°C
Humidity: 100%
Barometer: 29.89 inHg , 1012.2 hPa
Summary: Light rain
Clouds: Overcast
Visibility: 10 miles , 16 km
Cloud details: Partly cloudy 400 ft
Overcast 4000 ft
2018/08/15 10:17 KPPF 151017Z AUTO 20003KT 10SM -RA SCT004 OVC040 22/22 A2989 RMK AO2 RAB02 P0001 T02170217 $
 
KIDP - Independence, Kansas
Updated: Wed, Aug-Wed-2018 5:15am
Overcast
Overcast
 Wind from S
Wind: S 5 mph , 7 km/h
Temperature: 70°F , 21°C
Dew Point: 70°F , 21°C
Humidity: 100%
Barometer: 29.89 inHg , 1012.2 hPa
Clouds: Overcast
Visibility: 10 miles , 16 km
Cloud details: Mostly cloudy 4100 ft
Mostly cloudy 5000 ft
Overcast 11000 ft
2018/08/15 10:15 KIDP 151015Z AUTO 17004KT 10SM BKN041 BKN050 OVC110 21/21 A2989 RMK AO2 T02130210
KOJC - Olathe, Kansas
Updated: Wed, Aug-Wed-2018 5:27am
Overcast
Overcast
 Wind from SW
Wind: SW 5 mph , 7 km/h
Temperature: 72°F , 22°C
Dew Point: 72°F , 22°C
Humidity: 100%
Barometer: 29.86 inHg , 1011.2 hPa
Clouds: Overcast
Visibility: 10 miles , 16 km
Cloud details: Overcast 1000 ft
2018/08/15 10:27 KOJC 151027Z AUTO 23004KT 10SM OVC010 22/22 A2986 RMK AO2 CIG 007V015 T02170217
KCFV - Coffeyville, Kansas
Updated: Wed, Aug-Wed-2018 4:52am
Overcast
Overcast
 Wind from SSW
Wind: SSW 7 mph , 11 km/h
Temperature: 72°F , 22°C
Dew Point: 72°F , 22°C
Humidity: 100%
Barometer: 29.86 inHg , 1011.2 hPa
Clouds: Overcast
Visibility: 10 miles , 16 km
Cloud details: Overcast 4800 ft
2018/08/15 09:52 KCFV 150952Z AUTO 20006KT 10SM OVC048 22/22 A2986 RMK AO2 RAE11 SLP106 P0001 T02220217
 
KPTS - Pittsburg, Kansas
Updated: Tue, Aug-Tue-2018 10:55am
NOT Current
Rain, Overcast
Rain, Overcast
 Wind from SSW
Wind: SSW 9 mph , 15 km/h
Temperature: 73°F , 23°C
Dew Point: 73°F , 23°C
Humidity: 100%
Barometer: 29.95 inHg , 1014.2 hPa
Summary: Rain
Clouds: Overcast
Visibility: 5 miles , 8 km
Cloud details: Overcast 700 ft
2018/08/14 15:55 KPTS 141555Z AUTO 21008KT 5SM RA OVC007 23/23 A2995 RMK AO2 T02310232
KLGA - New York City, New York
Updated: Wed, Aug-Wed-2018 4:51am
Few Clouds
Few Clouds
 Wind from WNW
Wind: WNW 9 mph , 15 km/h
Temperature: 73°F , 23°C
Dew Point: 64°F , 18°C
Humidity: 74%
Barometer: 29.84 inHg , 1010.5 hPa
Clouds: Few Clouds
Visibility: 10 miles , 16 km
Cloud details: Few Clouds 3300 ft
Few Clouds 12000 ft
2018/08/15 09:51 KLGA 150951Z 29008KT 10SM FEW033 FEW120 23/18 A2984 RMK AO2 SLP106 T02280183
KCLT - Charlotte, North Carolina
Updated: Wed, Aug-Wed-2018 4:52am
Few Clouds
Few Clouds
 Wind from NNW
Wind: NNW 8 mph , 13 km/h
Temperature: 72°F , 22°C
Dew Point: 70°F , 21°C
Humidity: 94%
Barometer: 30.03 inHg , 1016.9 hPa
Clouds: Few Clouds
Visibility: 8 miles , 13 km
Cloud details: Few Clouds 25000 ft
2018/08/15 09:52 KCLT 150952Z 34007KT 8SM FEW250 22/21 A3003 RMK AO2 SLP159 T02170206
 
KATL - Atlanta, Georgia
Updated: Wed, Aug-Wed-2018 4:52am
Partly cloudy
Partly cloudy
 Wind from NW
Wind: NW 7 mph , 11 km/h
Temperature: 72°F , 22°C
Dew Point: 66°F , 19°C
Humidity: 83%
Barometer: 30.06 inHg , 1017.9 hPa
Clouds: Partly cloudy
Visibility: 10 miles , 16 km
Cloud details: Few Clouds 15000 ft
Partly cloudy 25000 ft
2018/08/15 09:52 KATL 150952Z 31006KT 10SM FEW150 SCT250 22/19 A3006 RMK AO2 SLP167 T02220194
KORL - Orlando, Florida
Updated: Wed, Aug-Wed-2018 4:53am
Clear
Clear
 Wind from calm
Wind: Calm
Temperature: 75°F , 24°C
Dew Point: 73°F , 23°C
Humidity: 94%
Barometer: 30.06 inHg , 1017.9 hPa
Clouds: Clear
Visibility: 10 miles , 16 km
2018/08/15 09:53 KORL 150953Z AUTO 00000KT 10SM CLR 24/23 A3006 RMK AO2 SLP182 T02440233
KMSP - Minneapolis, Minnesota
Updated: Wed, Aug-Wed-2018 4:53am
Few Clouds
Few Clouds
 Wind from N
Wind: N 5 mph , 7 km/h
Temperature: 70°F , 21°C
Dew Point: 63°F , 17°C
Humidity: 78%
Barometer: 29.93 inHg , 1013.5 hPa
Clouds: Few Clouds
Visibility: 10 miles , 16 km
Cloud details: Few Clouds 5000 ft
2018/08/15 09:53 KMSP 150953Z 36004KT 10SM FEW050 21/17 A2993 RMK AO2 SLP129 T02060167
 
KORD - Chicago, Illinois
Updated: Wed, Aug-Wed-2018 4:51am
Overcast
Overcast
 Wind from calm
Wind: Calm
Temperature: 75°F , 24°C
Dew Point: 64°F , 18°C
Humidity: 69%
Barometer: 29.95 inHg , 1014.2 hPa
Clouds: Overcast
Visibility: 10 miles , 16 km
Cloud details: Mostly cloudy 20000 ft
Overcast 25000 ft
2018/08/15 09:51 KORD 150951Z 00000KT 10SM BKN200 OVC250 24/18 A2995 RMK AO2 SLP136 T02390183
KDFW - Dallas/Ft Worth, Texas
Updated: Wed, Aug-Wed-2018 4:53am
Mostly cloudy
Mostly cloudy
 Wind from S
Wind: S 18 mph , 30 km/h
Temperature: 79°F , 26°C
Dew Point: 70°F , 21°C
Humidity: 74%
Barometer: 29.90 inHg , 1012.5 hPa
Clouds: Mostly cloudy
Visibility: 10 miles , 16 km
Cloud details: Mostly cloudy 30000 ft
2018/08/15 09:53 KDFW 150953Z 19016KT 10SM BKN300 26/21 A2990 RMK AO2 SLP117 T02610211
KHOU - Houston, Texas
Updated: Wed, Aug-Wed-2018 4:53am
Partly cloudy
Partly cloudy
 Wind from calm
Wind: Calm
Temperature: 81°F , 27°C
Heat Index: 89°F , 32°C
Dew Point: 79°F , 26°C
Humidity: 94%
Barometer: 29.98 inHg , 1015.2 hPa
Clouds: Partly cloudy
Visibility: 10 miles , 16 km
Cloud details: Partly cloudy 2000 ft
Partly cloudy 25000 ft
2018/08/15 09:53 KHOU 150953Z 00000KT 10SM SCT020 SCT250 27/26 A2998 RMK AO2 SLP154 T02670256
 
KDEN - Denver, Colorado
Updated: Wed, Aug-Wed-2018 4:53am
Mostly cloudy
Mostly cloudy
 Wind from SSW
Wind: SSW 21 mph , 33 km/h
Temperature: 64°F , 18°C
Dew Point: 52°F , 11°C
Humidity: 64%
Barometer: 30.04 inHg , 1017.3 hPa
Clouds: Mostly cloudy
Visibility: 10 miles , 16 km
Cloud details: Partly cloudy 13000 ft
Mostly cloudy 22000 ft
2018/08/15 09:53 KDEN 150953Z 20018KT 10SM SCT130 BKN220 18/11 A3004 RMK AO2 PK WND 19029/0903 SLP090 T01830111
KSFO - San Francisco, California
Updated: Wed, Aug-Wed-2018 4:56am
Overcast
Overcast
 Wind from W
Wind: W 10 mph , 17 km/h
Temperature: 61°F , 16°C
Dew Point: 55°F , 13°C
Humidity: 83%
Barometer: 29.93 inHg , 1013.5 hPa
Clouds: Overcast
Visibility: 10 miles , 16 km
Cloud details: Few Clouds 800 ft
Mostly cloudy 1000 ft
Overcast 1200 ft
2018/08/15 09:56 KSFO 150956Z 26009KT 10SM FEW008 BKN010 OVC012 16/13 A2993 RMK AO2 SLP133 T01610128
KLAX - Los Angeles, California
Updated: Wed, Aug-Wed-2018 4:53am
Mostly cloudy
Mostly cloudy
 Wind from calm
Wind: Calm
Temperature: 72°F , 22°C
Dew Point: 64°F , 18°C
Humidity: 78%
Barometer: 29.88 inHg , 1011.9 hPa
Clouds: Mostly cloudy
Visibility: 10 miles , 16 km
Cloud details: Mostly cloudy 1300 ft
2018/08/15 09:53 KLAX 150953Z 00000KT 10SM BKN013 22/18 A2988 RMK AO2 SLP115 T02170183